Time;durP1;ratioP1;P1;durP2;ratioP2;P2;SDS_P1;SDS_P2;PMS_P1;PMS_P2;Temp;Humidity;BMP_temperature;BMP_pressure;BME280_temperature;BME280_humidity;BME280_pressure;Samples;Min_cycle;Max_cycle;Signal;HPM_P1;HPM_P2
2022/08/31 00:05:09;;;;;;;;;;;14.90;99.90;;;;;;5086400;28;19928;-55
2022/08/31 00:07:37;;;;;;;;;;;14.90;99.90;;;;;;5080856;28;20096;-56
2022/08/31 00:10:13;;;;;;;;;;;14.90;99.90;;;;;;5092958;28;19925;-54
2022/08/31 00:12:41;;;;;;;;;;;14.90;99.90;;;;;;5069242;28;19925;-55
2022/08/31 00:15:11;;;;;;;;;;;15.00;99.90;;;;;;5079846;28;19928;-55
2022/08/31 00:17:39;;;;;;;;;;;15.00;99.90;;;;;;5090800;28;19931;-55
2022/08/31 00:20:08;;;;;;;;;;;15.10;99.90;;;;;;5074392;28;19944;-55
2022/08/31 00:22:55;;;;;;;;;;;15.10;99.90;;;;;;5080485;28;19924;-55
2022/08/31 00:25:23;;;;;;;;;;;15.10;99.90;;;;;;5082314;28;19929;-54
2022/08/31 00:27:51;;;;;;;;;;;15.10;99.90;;;;;;5070636;28;19924;-54
2022/08/31 00:30:18;;;;;;;;;;;15.10;99.90;;;;;;5085507;28;20284;-54
2022/08/31 00:32:46;;;;;;;;;;;15.10;99.90;;;;;;5087101;28;20283;-54
2022/08/31 00:35:14;;;;;;;;;;;15.10;99.90;;;;;;5083856;28;19939;-54
2022/08/31 00:37:41;;;;;;;;;;;15.10;99.90;;;;;;5083977;28;19931;-54
2022/08/31 00:40:10;;;;;;;;;;;15.10;99.90;;;;;;5082606;28;19935;-54
2022/08/31 00:42:38;;;;;;;;;;;15.10;99.90;;;;;;5070798;28;19936;-54
2022/08/31 00:45:06;;;;;;;;;;;15.10;99.90;;;;;;5081764;28;19947;-54
2022/08/31 00:47:33;;;;;;;;;;;15.00;99.90;;;;;;5085706;28;19946;-54
2022/08/31 00:50:02;;;;;;;;;;;15.00;99.90;;;;;;5082557;28;19928;-54
2022/08/31 00:52:32;;;;;;;;;;;15.00;99.90;;;;;;5071157;28;19924;-54
2022/08/31 00:55:08;;;;;;;;;;;14.90;99.90;;;;;;5077796;28;19940;-54
2022/08/31 00:57:37;;;;;;;;;;;14.90;99.90;;;;;;5078305;28;20368;-54
2022/08/31 01:00:07;;;;;;;;;;;14.90;99.90;;;;;;5093336;28;19931;-54
2022/08/31 01:02:35;;;;;;;;;;;14.90;99.90;;;;;;5069389;28;19928;-54
2022/08/31 01:05:03;;;;;;;;;;;14.90;99.90;;;;;;5083742;28;19935;-57
2022/08/31 01:07:31;;;;;;;;;;;14.80;99.90;;;;;;5087070;28;20438;-56
2022/08/31 01:09:59;;;;;;;;;;;14.80;99.90;;;;;;5063570;28;20283;-56
2022/08/31 01:12:26;;;;;;;;;;;14.80;99.90;;;;;;5082735;28;20287;-57
2022/08/31 01:14:54;;;;;;;;;;;14.80;99.90;;;;;;5080425;28;20402;-56
2022/08/31 01:17:22;;;;;;;;;;;14.70;99.90;;;;;;5073470;28;20376;-59
2022/08/31 01:20:05;;;;;;;;;;;14.70;99.90;;;;;;5073743;28;19931;-57
2022/08/31 01:22:37;;;;;;;;;;;14.70;99.90;;;;;;5082034;28;20104;-57
2022/08/31 01:25:05;;;;;;;;;;;14.60;99.90;;;;;;5096066;28;20291;-56
2022/08/31 01:27:34;;;;;;;;;;;14.60;99.90;;;;;;5088755;28;19924;-56
2022/08/31 01:30:03;;;;;;;;;;;14.60;99.90;;;;;;5083937;28;19924;-54
2022/08/31 01:32:30;;;;;;;;;;;14.60;99.90;;;;;;5087701;28;19931;-56
2022/08/31 01:34:58;;;;;;;;;;;14.60;99.90;;;;;;5076852;28;19928;-57
2022/08/31 01:37:26;;;;;;;;;;;14.50;99.90;;;;;;5091912;28;19931;-55
2022/08/31 01:39:56;;;;;;;;;;;14.50;99.90;;;;;;5094499;28;19924;-54
2022/08/31 01:42:24;;;;;;;;;;;14.50;99.90;;;;;;5082809;28;19924;-55
2022/08/31 01:45:01;;;;;;;;;;;14.40;99.90;;;;;;5079897;28;19925;-56
2022/08/31 01:47:28;;;;;;;;;;;14.40;99.90;;;;;;5103499;27;19935;-54
2022/08/31 01:49:56;;;;;;;;;;;14.40;99.90;;;;;;5074791;28;19924;-54
2022/08/31 01:52:25;;;;;;;;;;;14.40;99.90;;;;;;5085226;28;20383;-54
2022/08/31 01:54:55;;;;;;;;;;;14.40;99.90;;;;;;5086546;28;19924;-54
2022/08/31 01:57:23;;;;;;;;;;;14.40;99.90;;;;;;5085992;28;19924;-53
2022/08/31 02:00:27;;;;;;;;;;;14.40;99.90;;;;;;5077637;28;20419;-54
2022/08/31 02:02:57;;;;;;;;;;;14.40;99.90;;;;;;5080081;28;20376;-54
2022/08/31 02:05:25;;;;;;;;;;;14.40;99.90;;;;;;5101895;28;19972;-54
2022/08/31 02:07:53;;;;;;;;;;;14.40;99.90;;;;;;5071928;28;19931;-54
2022/08/31 02:10:22;;;;;;;;;;;14.40;99.90;;;;;;5087012;28;20385;-54
2022/08/31 02:12:50;;;;;;;;;;;14.40;99.90;;;;;;5072168;28;20406;-56
2022/08/31 02:15:28;;;;;;;;;;;14.40;99.90;;;;;;5072318;28;19939;-54
2022/08/31 02:17:56;;;;;;;;;;;14.40;99.90;;;;;;5072308;28;19932;-54
2022/08/31 02:20:23;;;;;;;;;;;14.40;99.90;;;;;;5071024;28;19925;-54
2022/08/31 02:22:51;;;;;;;;;;;14.40;99.90;;;;;;5116998;27;20302;-54
2022/08/31 02:25:18;;;;;;;;;;;14.40;99.90;;;;;;5111566;28;19947;-54
2022/08/31 02:27:46;;;;;;;;;;;14.40;99.90;;;;;;5111359;28;19924;-55
2022/08/31 02:30:15;;;;;;;;;;;14.30;99.90;;;;;;5112594;28;19928;-53
2022/08/31 02:32:43;;;;;;;;;;;14.30;99.90;;;;;;5111382;28;19924;-54
2022/08/31 02:35:10;;;;;;;;;;;14.30;99.90;;;;;;5112624;28;19931;-54
2022/08/31 02:37:37;;;;;;;;;;;14.30;99.90;;;;;;5111332;28;20333;-54
2022/08/31 02:40:07;;;;;;;;;;;14.30;99.90;;;;;;5111286;28;20412;-54
2022/08/31 02:42:40;;;;;;;;;;;14.30;99.90;;;;;;5106580;28;19932;-54
2022/08/31 02:45:22;;;;;;;;;;;14.30;99.90;;;;;;5070713;28;20383;-54
2022/08/31 02:47:50;;;;;;;;;;;14.30;99.90;;;;;;5070502;28;19931;-54
2022/08/31 02:50:26;;;;;;;;;;;14.20;99.90;;;;;;5069803;28;19924;-54
2022/08/31 02:52:55;;;;;;;;;;;14.20;99.90;;;;;;5090073;28;20386;-53
2022/08/31 02:55:23;;;;;;;;;;;14.10;99.90;;;;;;5111086;28;19924;-54
2022/08/31 02:57:51;;;;;;;;;;;14.10;99.90;;;;;;5111119;28;19931;-54
2022/08/31 03:00:24;;;;;;;;;;;14.00;99.90;;;;;;5110994;28;19950;-55
2022/08/31 03:02:53;;;;;;;;;;;14.00;99.90;;;;;;5112245;28;19931;-54
2022/08/31 03:05:22;;;;;;;;;;;13.90;99.90;;;;;;5110841;28;19931;-54
2022/08/31 03:07:49;;;;;;;;;;;13.80;99.90;;;;;;5111001;28;20302;-54
2022/08/31 03:10:19;;;;;;;;;;;13.70;99.90;;;;;;5110128;28;19923;-54
2022/08/31 03:12:48;;;;;;;;;;;13.70;99.90;;;;;;5112056;28;20284;-54
2022/08/31 03:15:17;;;;;;;;;;;13.70;99.90;;;;;;5110908;28;19924;-54
2022/08/31 03:17:45;;;;;;;;;;;13.60;99.90;;;;;;5110780;28;19931;-54
2022/08/31 03:20:14;;;;;;;;;;;13.50;99.90;;;;;;5110720;28;19924;-54
2022/08/31 03:22:41;;;;;;;;;;;13.50;99.90;;;;;;5110750;28;19923;-54
2022/08/31 03:25:16;;;;;;;;;;;13.40;99.90;;;;;;5111395;28;20458;-54
2022/08/31 03:27:44;;;;;;;;;;;13.40;99.90;;;;;;5110890;28;19924;-53
2022/08/31 03:30:13;;;;;;;;;;;13.40;99.90;;;;;;5110672;28;20374;-53
2022/08/31 03:32:47;;;;;;;;;;;13.40;99.90;;;;;;5110680;28;19931;-54
2022/08/31 03:35:16;;;;;;;;;;;13.30;99.90;;;;;;5114912;28;19924;-56
2022/08/31 03:37:44;;;;;;;;;;;13.30;99.90;;;;;;5114581;28;19948;-56
2022/08/31 03:40:12;;;;;;;;;;;13.30;99.90;;;;;;5114650;28;19924;-56
2022/08/31 03:42:40;;;;;;;;;;;13.30;99.90;;;;;;5115777;28;19931;-57
2022/08/31 03:45:10;;;;;;;;;;;13.20;99.90;;;;;;5107672;28;19935;-57
2022/08/31 03:47:40;;;;;;;;;;;13.30;99.90;;;;;;5094165;28;19925;-56
2022/08/31 03:50:12;;;;;;;;;;;13.20;99.90;;;;;;5093856;28;19924;-57
2022/08/31 03:52:54;;;;;;;;;;;13.20;99.90;;;;;;5103287;28;20396;-56
2022/08/31 03:55:22;;;;;;;;;;;13.20;99.90;;;;;;5114368;28;19924;-57
2022/08/31 03:57:50;;;;;;;;;;;13.10;99.90;;;;;;5114325;28;19962;-56
2022/08/31 04:00:18;;;;;;;;;;;13.10;99.90;;;;;;5114216;28;19931;-57
2022/08/31 04:02:52;;;;;;;;;;;13.10;99.90;;;;;;5114172;28;19931;-56
2022/08/31 04:05:20;;;;;;;;;;;13.00;99.90;;;;;;5115470;28;19928;-56
2022/08/31 04:08:06;;;;;;;;;;;13.00;99.90;;;;;;5115340;28;19924;-57
2022/08/31 04:10:49;;;;;;;;;;;12.90;99.90;;;;;;5115385;28;19924;-57
2022/08/31 04:13:36;;;;;;;;;;;12.90;99.90;;;;;;5115260;28;20378;-56
2022/08/31 04:16:22;;;;;;;;;;;12.80;99.90;;;;;;5115338;28;19924;-57
2022/08/31 04:19:10;;;;;;;;;;;12.90;99.90;;;;;;5115570;28;19924;-57
2022/08/31 04:21:48;;;;;;;;;;;12.80;99.90;;;;;;5113901;28;19923;-61
2022/08/31 04:24:15;;;;;;;;;;;12.80;99.90;;;;;;5090164;28;19924;-54
2022/08/31 04:26:43;;;;;;;;;;;12.80;99.90;;;;;;5089981;28;20298;-56
2022/08/31 04:29:11;;;;;;;;;;;12.80;99.90;;;;;;5073027;28;19924;-55
2022/08/31 04:31:41;;;;;;;;;;;12.80;99.90;;;;;;5072994;28;19924;-54
2022/08/31 04:34:11;;;;;;;;;;;12.80;99.90;;;;;;5072951;28;19932;-54
2022/08/31 04:36:39;;;;;;;;;;;12.80;99.90;;;;;;5076460;28;19958;-54
2022/08/31 04:39:07;;;;;;;;;;;12.80;99.90;;;;;;5074163;28;19932;-54
2022/08/31 04:41:36;;;;;;;;;;;12.80;99.90;;;;;;5072999;28;19931;-55
2022/08/31 04:44:04;;;;;;;;;;;12.70;99.90;;;;;;5072575;28;19924;-54
2022/08/31 04:46:32;;;;;;;;;;;12.70;99.90;;;;;;5071925;28;19924;-54
2022/08/31 04:49:00;;;;;;;;;;;12.70;99.90;;;;;;5079496;28;19935;-54
2022/08/31 04:51:29;;;;;;;;;;;12.70;99.90;;;;;;5052228;28;19935;-54
2022/08/31 04:53:57;;;;;;;;;;;12.70;99.90;;;;;;5105811;28;19928;-57
2022/08/31 04:56:26;;;;;;;;;;;12.60;99.90;;;;;;5109954;28;19960;-55
2022/08/31 04:58:55;;;;;;;;;;;12.60;99.90;;;;;;5093979;28;19935;-54
2022/08/31 05:01:26;;;;;;;;;;;12.50;99.90;;;;;;5089340;28;20383;-53
2022/08/31 05:04:13;;;;;;;;;;;12.50;99.90;;;;;;5083892;28;20291;-54
2022/08/31 05:06:42;;;;;;;;;;;12.50;99.90;;;;;;5085571;28;19935;-54
2022/08/31 05:09:11;;;;;;;;;;;12.50;99.90;;;;;;5084898;28;19928;-54
2022/08/31 05:11:42;;;;;;;;;;;12.40;99.90;;;;;;5082144;28;19928;-54
2022/08/31 05:14:10;;;;;;;;;;;12.50;99.90;;;;;;5065299;28;19935;-54
2022/08/31 05:16:41;;;;;;;;;;;12.40;99.90;;;;;;5066804;28;19924;-57
2022/08/31 05:19:09;;;;;;;;;;;12.40;99.90;;;;;;5086649;28;19932;-56
2022/08/31 05:21:38;;;;;;;;;;;12.40;99.90;;;;;;5067741;28;20376;-55
2022/08/31 05:24:15;;;;;;;;;;;12.40;99.90;;;;;;5084490;28;20387;-56
2022/08/31 05:26:46;;;;;;;;;;;12.40;99.90;;;;;;5071627;28;20340;-56
2022/08/31 05:29:17;;;;;;;;;;;12.40;99.90;;;;;;5086321;28;19929;-56
2022/08/31 05:31:45;;;;;;;;;;;12.20;99.90;;;;;;5065335;28;20304;-54
2022/08/31 05:34:20;;;;;;;;;;;12.40;99.90;;;;;;5070398;28;19931;-56
2022/08/31 05:36:50;;;;;;;;;;;12.40;99.90;;;;;;5067235;28;19925;-55
2022/08/31 05:39:18;;;;;;;;;;;12.30;99.90;;;;;;5085717;28;19935;-56
2022/08/31 05:41:46;;;;;;;;;;;12.40;99.90;;;;;;5072451;28;19925;-55
2022/08/31 05:44:16;;;;;;;;;;;12.30;99.90;;;;;;5084650;28;19925;-56
2022/08/31 05:46:43;;;;;;;;;;;12.30;99.90;;;;;;5077512;28;19935;-54
2022/08/31 05:49:18;;;;;;;;;;;12.30;99.90;;;;;;5091333;28;19924;-54
2022/08/31 05:51:46;;;;;;;;;;;12.30;99.90;;;;;;5080838;28;19947;-54
2022/08/31 05:54:14;;;;;;;;;;;12.30;99.90;;;;;;5076800;28;20394;-54
2022/08/31 05:56:42;;;;;;;;;;;12.30;99.90;;;;;;5073045;28;20376;-54
2022/08/31 05:59:10;;;;;;;;;;;12.30;99.90;;;;;;5087403;28;19939;-54
2022/08/31 06:01:39;;;;;;;;;;;12.30;99.90;;;;;;5080048;28;19924;-54
2022/08/31 06:04:09;;;;;;;;;;;12.30;99.90;;;;;;5093466;28;19935;-54
2022/08/31 06:06:37;;;;;;;;;;;12.40;99.90;;;;;;5049016;28;20383;-55
2022/08/31 06:09:06;;;;;;;;;;;12.40;99.90;;;;;;5075202;28;19924;-56
2022/08/31 06:11:33;;;;;;;;;;;12.40;99.90;;;;;;5066271;28;21914;-54
2022/08/31 06:14:02;;;;;;;;;;;12.40;99.90;;;;;;5084919;28;19935;-55
2022/08/31 06:16:31;;;;;;;;;;;12.50;99.90;;;;;;5079925;28;19925;-55
2022/08/31 06:19:02;;;;;;;;;;;12.50;99.90;;;;;;5088172;28;19924;-56
2022/08/31 06:21:32;;;;;;;;;;;12.50;99.90;;;;;;5078884;28;20730;-56
2022/08/31 06:24:00;;;;;;;;;;;12.60;99.90;;;;;;5086896;28;20109;-56
2022/08/31 06:26:29;;;;;;;;;;;12.70;99.90;;;;;;5083431;28;19931;-55
2022/08/31 06:28:59;;;;;;;;;;;12.80;99.90;;;;;;5082468;28;19924;-56
2022/08/31 06:31:33;;;;;;;;;;;12.90;99.90;;;;;;5082803;28;20261;-55
2022/08/31 06:34:01;;;;;;;;;;;13.00;99.90;;;;;;5080137;28;19924;-56
2022/08/31 06:36:47;;;;;;;;;;;13.10;99.90;;;;;;5081605;28;20375;-56
2022/08/31 06:39:41;;;;;;;;;;;13.30;99.90;;;;;;5066515;28;20154;-57
2022/08/31 06:42:35;;;;;;;;;;;13.40;99.90;;;;;;5083204;28;19924;-57
2022/08/31 06:45:04;;;;;;;;;;;13.50;99.90;;;;;;5089533;28;19946;-56
2022/08/31 06:48:02;;;;;;;;;;;13.60;99.90;;;;;;5069433;28;19931;-56
2022/08/31 06:50:29;;;;;;;;;;;13.70;99.90;;;;;;5078262;28;19931;-57
2022/08/31 06:52:57;;;;;;;;;;;13.80;99.90;;;;;;5096844;28;20298;-57
2022/08/31 06:55:48;;;;;;;;;;;14.00;99.90;;;;;;5074032;28;20418;-55
2022/08/31 06:58:34;;;;;;;;;;;14.00;99.90;;;;;;5084824;28;19939;-57
2022/08/31 07:01:27;;;;;;;;;;;14.10;99.90;;;;;;5071060;28;19935;-57
2022/08/31 07:04:38;;;;;;;;;;;14.20;99.90;;;;;;5078086;28;19928;-57
2022/08/31 07:07:07;;;;;;;;;;;14.20;99.90;;;;;;5079888;28;19928;-58
2022/08/31 07:09:38;;;;;;;;;;;14.30;99.90;;;;;;5086528;28;19925;-58
2022/08/31 07:12:06;;;;;;;;;;;14.40;99.90;;;;;;5058812;28;20384;-57
2022/08/31 07:14:35;;;;;;;;;;;14.50;99.90;;;;;;5091401;28;20087;-58
2022/08/31 07:17:04;;;;;;;;;;;14.50;99.90;;;;;;5071305;28;19924;-57
2022/08/31 07:19:32;;;;;;;;;;;14.60;99.90;;;;;;5071117;28;19925;-59
2022/08/31 07:22:04;;;;;;;;;;;14.70;99.90;;;;;;5089693;28;19931;-58
2022/08/31 07:24:34;;;;;;;;;;;14.80;99.90;;;;;;5083490;28;20003;-57
2022/08/31 07:27:07;;;;;;;;;;;14.80;99.90;;;;;;5073750;28;19936;-57
2022/08/31 07:29:39;;;;;;;;;;;14.90;99.90;;;;;;5061708;28;20386;-57
2022/08/31 07:32:12;;;;;;;;;;;15.00;99.90;;;;;;5082705;28;19924;-57
2022/08/31 07:34:42;;;;;;;;;;;15.10;99.90;;;;;;5071027;28;21591;-57
2022/08/31 07:43:14;;;;;;;;;;;15.20;99.90;;;;;;5082142;28;19924;-54
2022/08/31 07:45:43;;;;;;;;;;;15.20;99.90;;;;;;5086223;28;19928;-57
2022/08/31 07:48:18;;;;;;;;;;;15.20;99.90;;;;;;5078225;28;19924;-54
2022/08/31 07:51:04;;;;;;;;;;;15.30;99.90;;;;;;5072751;28;19924;-54
2022/08/31 07:53:46;;;;;;;;;;;15.30;99.90;;;;;;5086131;28;19925;-54
2022/08/31 07:56:50;;;;;;;;;;;15.40;99.90;;;;;;5079857;28;19924;-56
2022/08/31 07:59:20;;;;;;;;;;;15.50;99.90;;;;;;5085824;28;20451;-57
2022/08/31 08:01:48;;;;;;;;;;;15.60;99.90;;;;;;5088458;28;19928;-56
2022/08/31 08:04:25;;;;;;;;;;;15.70;99.90;;;;;;5069140;28;19943;-55
2022/08/31 08:06:59;;;;;;;;;;;15.80;99.90;;;;;;5070947;28;20123;-57
2022/08/31 08:09:57;;;;;;;;;;;15.90;99.90;;;;;;5064224;28;19928;-57
2022/08/31 08:12:45;;;;;;;;;;;16.00;99.90;;;;;;5074702;28;19932;-57
2022/08/31 08:15:34;;;;;;;;;;;16.00;99.90;;;;;;5086295;28;19924;-57
2022/08/31 08:18:25;;;;;;;;;;;16.10;99.90;;;;;;5089959;28;19933;-56
2022/08/31 08:20:57;;;;;;;;;;;16.10;99.90;;;;;;5077170;28;19939;-57
2022/08/31 08:23:25;;;;;;;;;;;16.30;99.90;;;;;;5089306;28;19928;-54
2022/08/31 08:26:08;;;;;;;;;;;16.40;99.90;;;;;;5071357;28;19929;-55
2022/08/31 08:29:08;;;;;;;;;;;16.40;99.90;;;;;;5103843;28;20341;-55
2022/08/31 08:31:47;;;;;;;;;;;16.50;99.90;;;;;;5082208;28;19924;-55
2022/08/31 08:34:14;;;;;;;;;;;16.60;99.90;;;;;;5089493;28;19924;-56
2022/08/31 08:36:42;;;;;;;;;;;16.70;99.90;;;;;;5085358;28;19936;-56
2022/08/31 08:39:09;;;;;;;;;;;16.80;99.90;;;;;;5095257;28;19928;-55
2022/08/31 08:41:44;;;;;;;;;;;16.80;99.90;;;;;;5081121;28;19924;-54
2022/08/31 08:44:14;;;;;;;;;;;16.90;99.90;;;;;;5095012;28;19932;-54
2022/08/31 08:46:51;;;;;;;;;;;16.90;99.90;;;;;;5090334;28;19933;-57
2022/08/31 08:49:21;;;;;;;;;;;17.00;99.90;;;;;;5079889;28;20383;-57
2022/08/31 08:52:11;;;;;;;;;;;17.10;99.90;;;;;;5075516;28;19959;-57
2022/08/31 08:54:42;;;;;;;;;;;17.30;99.90;;;;;;5069194;28;19939;-55
2022/08/31 08:57:13;;;;;;;;;;;17.40;99.90;;;;;;5064684;28;19928;-54
2022/08/31 08:59:43;;;;;;;;;;;17.50;99.90;;;;;;5093149;28;19939;-58
2022/08/31 09:02:13;;;;;;;;;;;17.50;99.90;;;;;;5082493;28;19924;-57
2022/08/31 09:04:41;;;;;;;;;;;17.60;99.90;;;;;;5059391;28;19925;-57
2022/08/31 09:07:29;;;;;;;;;;;17.70;99.90;;;;;;5086787;28;20388;-57
2022/08/31 09:10:04;;;;;;;;;;;17.80;99.90;;;;;;5089817;28;20496;-54
2022/08/31 09:12:43;;;;;;;;;;;17.80;99.90;;;;;;5104345;28;20444;-55
2022/08/31 09:15:16;;;;;;;;;;;17.90;99.90;;;;;;5073411;28;19928;-57
2022/08/31 09:17:50;;;;;;;;;;;18.00;99.90;;;;;;5111290;27;19924;-59
2022/08/31 09:20:18;;;;;;;;;;;18.20;99.90;;;;;;5107534;28;19927;-57
2022/08/31 09:22:47;;;;;;;;;;;18.30;99.90;;;;;;5076062;28;19932;-57
2022/08/31 09:25:17;;;;;;;;;;;18.40;99.90;;;;;;5069337;28;19925;-58
2022/08/31 09:28:07;;;;;;;;;;;18.50;99.90;;;;;;5074961;28;20288;-57
2022/08/31 09:30:38;;;;;;;;;;;18.60;99.80;;;;;;5072355;28;19924;-55
2022/08/31 09:33:06;;;;;;;;;;;18.70;99.90;;;;;;5080697;28;20394;-57
2022/08/31 09:35:41;;;;;;;;;;;18.80;99.90;;;;;;5073415;28;19924;-57
2022/08/31 09:38:11;;;;;;;;;;;18.80;98.90;;;;;;5077614;28;19932;-58
2022/08/31 09:40:43;;;;;;;;;;;18.90;98.90;;;;;;5073813;28;19924;-57
2022/08/31 09:43:22;;;;;;;;;;;18.90;99.00;;;;;;5079913;28;19924;-55
2022/08/31 09:45:56;;;;;;;;;;;19.00;98.50;;;;;;5083911;28;19954;-58
2022/08/31 09:48:42;;;;;;;;;;;19.00;98.90;;;;;;5077096;28;19924;-57
2022/08/31 09:51:19;;;;;;;;;;;19.10;99.20;;;;;;5075608;28;20011;-58
2022/08/31 09:56:51;;;;;;;;;;;19.20;98.60;;;;;;5076321;28;20580;-58
2022/08/31 09:59:36;;;;;;;;;;;19.30;98.10;;;;;;5086600;28;19935;-56
2022/08/31 10:02:07;;;;;;;;;;;19.50;98.10;;;;;;5066187;28;19931;-55
2022/08/31 10:04:46;;;;;;;;;;;19.60;97.60;;;;;;5057979;28;19924;-56
2022/08/31 10:07:23;;;;;;;;;;;19.80;96.50;;;;;;5074279;28;20452;-56
2022/08/31 10:09:57;;;;;;;;;;;19.80;96.00;;;;;;5068921;28;19932;-56
2022/08/31 10:12:44;;;;;;;;;;;20.00;96.00;;;;;;5076778;28;19924;-57
2022/08/31 10:15:12;;;;;;;;;;;20.10;95.30;;;;;;5109594;28;20535;-58
2022/08/31 10:17:56;;;;;;;;;;;20.20;94.90;;;;;;5105072;28;20371;-57
2022/08/31 10:20:27;;;;;;;;;;;20.10;95.30;;;;;;5085869;28;19935;-57
2022/08/31 10:23:07;;;;;;;;;;;20.10;95.60;;;;;;5072887;28;19928;-55
2022/08/31 10:25:40;;;;;;;;;;;20.10;95.70;;;;;;5068891;28;19928;-56
2022/08/31 10:28:13;;;;;;;;;;;20.20;95.80;;;;;;5075653;28;19937;-55
2022/08/31 10:30:52;;;;;;;;;;;20.40;96.00;;;;;;5087259;28;20315;-57
2022/08/31 10:33:22;;;;;;;;;;;20.60;95.40;;;;;;5080471;28;19924;-56
2022/08/31 10:35:57;;;;;;;;;;;20.90;94.80;;;;;;5068696;28;20292;-58
2022/08/31 10:38:39;;;;;;;;;;;21.10;94.40;;;;;;5075802;28;19931;-55
2022/08/31 10:41:09;;;;;;;;;;;21.30;94.10;;;;;;5085687;28;19925;-57
2022/08/31 10:43:49;;;;;;;;;;;21.40;93.90;;;;;;5070245;28;20383;-57
2022/08/31 10:46:16;;;;;;;;;;;21.40;93.50;;;;;;5078847;28;19939;-58
2022/08/31 10:48:53;;;;;;;;;;;21.50;93.50;;;;;;5101071;28;19924;-56
2022/08/31 10:51:27;;;;;;;;;;;21.60;92.90;;;;;;5078292;28;19931;-57
2022/08/31 10:53:55;;;;;;;;;;;21.60;93.00;;;;;;5076969;28;20271;-56
2022/08/31 10:56:40;;;;;;;;;;;21.60;92.60;;;;;;5069577;28;19924;-57
2022/08/31 10:59:28;;;;;;;;;;;21.60;92.80;;;;;;5070793;28;19925;-55
2022/08/31 11:02:04;;;;;;;;;;;21.60;92.60;;;;;;5074602;28;19931;-58
2022/08/31 11:04:44;;;;;;;;;;;21.70;91.80;;;;;;5075620;28;20376;-59
2022/08/31 11:07:23;;;;;;;;;;;21.70;91.70;;;;;;5073406;28;20418;-60
2022/08/31 11:09:57;;;;;;;;;;;21.80;91.40;;;;;;5079244;28;20292;-57
2022/08/31 11:12:29;;;;;;;;;;;21.90;91.30;;;;;;5075540;28;19931;-56
2022/08/31 11:14:57;;;;;;;;;;;22.00;91.40;;;;;;5103486;28;20275;-56
2022/08/31 11:17:39;;;;;;;;;;;22.20;90.80;;;;;;5080802;28;19924;-55
2022/08/31 11:20:26;;;;;;;;;;;22.30;91.10;;;;;;5097425;28;19931;-56
2022/08/31 11:23:00;;;;;;;;;;;22.40;90.80;;;;;;5076023;28;19928;-57
2022/08/31 11:25:57;;;;;;;;;;;22.50;90.50;;;;;;5067227;28;19925;-59
2022/08/31 11:28:34;;;;;;;;;;;22.70;89.10;;;;;;5083353;28;19923;-58
2022/08/31 11:31:07;;;;;;;;;;;22.60;87.60;;;;;;5068938;28;19932;-58
2022/08/31 11:33:35;;;;;;;;;;;22.50;87.30;;;;;;5068887;28;19924;-56
2022/08/31 11:36:10;;;;;;;;;;;22.40;86.30;;;;;;5069685;28;19935;-58
2022/08/31 11:39:00;;;;;;;;;;;22.40;87.50;;;;;;5076674;28;19928;-56
2022/08/31 11:41:30;;;;;;;;;;;22.60;86.30;;;;;;5085258;28;19924;-56
2022/08/31 11:44:01;;;;;;;;;;;22.80;86.00;;;;;;5104064;28;20409;-57
2022/08/31 11:46:58;;;;;;;;;;;23.00;85.80;;;;;;5108801;28;19923;-56
2022/08/31 11:49:49;;;;;;;;;;;23.30;85.60;;;;;;5079344;28;19925;-56
2022/08/31 11:52:20;;;;;;;;;;;23.60;83.90;;;;;;5073158;28;19946;-57
2022/08/31 11:54:49;;;;;;;;;;;23.70;83.10;;;;;;5077663;28;20294;-57
2022/08/31 11:57:19;;;;;;;;;;;23.90;83.30;;;;;;5072507;28;19924;-58
2022/08/31 11:59:47;;;;;;;;;;;24.20;82.80;;;;;;5075368;28;20415;-58
2022/08/31 12:02:18;;;;;;;;;;;24.40;79.80;;;;;;5074201;28;19924;-56
2022/08/31 12:04:46;;;;;;;;;;;24.70;79.30;;;;;;5092099;28;19931;-56
2022/08/31 12:07:27;;;;;;;;;;;24.90;77.60;;;;;;5089397;28;19951;-56
2022/08/31 12:10:00;;;;;;;;;;;25.10;77.20;;;;;;5082635;28;19928;-57
2022/08/31 12:12:28;;;;;;;;;;;25.30;75.00;;;;;;5088880;28;19928;-57
2022/08/31 12:14:58;;;;;;;;;;;25.40;73.80;;;;;;5091487;28;19924;-59
2022/08/31 12:17:34;;;;;;;;;;;25.60;72.70;;;;;;5085980;28;19947;-57
2022/08/31 12:20:21;;;;;;;;;;;25.80;71.30;;;;;;5081260;28;19932;-56
2022/08/31 12:25:53;;;;;;;;;;;26.50;69.80;;;;;;5072866;28;19951;-58
2022/08/31 12:28:39;;;;;;;;;;;26.80;69.70;;;;;;5078095;28;19924;-57
2022/08/31 12:31:11;;;;;;;;;;;27.00;69.80;;;;;;5081445;28;19924;-57
2022/08/31 12:33:44;;;;;;;;;;;27.40;70.00;;;;;;5089364;28;19947;-58
2022/08/31 12:36:11;;;;;;;;;;;27.60;68.80;;;;;;5076914;28;19928;-58
2022/08/31 12:38:38;;;;;;;;;;;27.70;68.60;;;;;;5084847;28;19931;-57
2022/08/31 12:41:09;;;;;;;;;;;27.90;68.20;;;;;;5079535;28;19932;-58
2022/08/31 12:43:38;;;;;;;;;;;27.80;67.80;;;;;;5083862;28;19924;-57
2022/08/31 12:46:08;;;;;;;;;;;27.20;68.20;;;;;;5077322;28;19932;-58
2022/08/31 12:48:56;;;;;;;;;;;26.50;68.80;;;;;;5089951;28;20410;-58
2022/08/31 12:51:31;;;;;;;;;;;26.10;70.40;;;;;;5089812;28;19942;-58
2022/08/31 12:54:17;;;;;;;;;;;26.20;70.70;;;;;;5086079;28;19931;-59
2022/08/31 12:56:45;;;;;;;;;;;26.30;69.70;;;;;;5070790;28;19925;-58
2022/08/31 12:59:29;;;;;;;;;;;26.20;68.20;;;;;;5102500;28;20005;-58
2022/08/31 13:02:19;;;;;;;;;;;26.20;68.70;;;;;;5108734;28;19924;-58
2022/08/31 13:04:47;;;;;;;;;;;26.30;68.40;;;;;;5089218;28;20458;-58
2022/08/31 13:07:31;;;;;;;;;;;26.50;68.80;;;;;;5075903;28;20015;-57
2022/08/31 13:10:07;;;;;;;;;;;26.50;68.10;;;;;;5070830;28;19931;-57
2022/08/31 13:12:35;;;;;;;;;;;27.00;67.50;;;;;;5074793;28;19947;-57
2022/08/31 13:15:03;;;;;;;;;;;27.40;65.20;;;;;;5089202;28;19928;-57
2022/08/31 13:17:35;;;;;;;;;;;27.60;63.70;;;;;;5090349;28;19924;-57
2022/08/31 13:20:03;;;;;;;;;;;27.80;62.50;;;;;;5069465;28;19924;-56
2022/08/31 13:22:32;;;;;;;;;;;27.50;61.70;;;;;;5072351;28;19931;-56
2022/08/31 13:25:35;;;;;;;;;;;27.50;62.80;;;;;;5070506;28;19931;-57
2022/08/31 13:28:03;;;;;;;;;;;27.50;62.20;;;;;;5059563;28;20528;-57
2022/08/31 13:30:33;;;;;;;;;;;27.70;61.30;;;;;;5077147;28;19924;-57
2022/08/31 13:33:16;;;;;;;;;;;27.90;62.30;;;;;;5078174;28;19931;-57
2022/08/31 13:35:48;;;;;;;;;;;28.10;59.70;;;;;;5079605;28;20302;-58
2022/08/31 13:38:16;;;;;;;;;;;28.20;59.30;;;;;;5072617;28;20362;-57
2022/08/31 13:40:49;;;;;;;;;;;27.90;59.40;;;;;;5079287;28;20364;-59
2022/08/31 13:43:18;;;;;;;;;;;27.60;59.00;;;;;;5093549;28;19931;-58
2022/08/31 13:45:57;;;;;;;;;;;27.30;60.00;;;;;;5076739;28;19925;-58
2022/08/31 13:48:32;;;;;;;;;;;27.20;60.90;;;;;;5075878;28;20283;-58
2022/08/31 13:51:02;;;;;;;;;;;27.10;61.10;;;;;;5073659;28;19924;-59
2022/08/31 13:53:38;;;;;;;;;;;27.20;61.80;;;;;;5088698;28;19928;-59
2022/08/31 13:59:15;;;;;;;;;;;28.00;61.70;;;;;;5073560;28;19932;-59
2022/08/31 14:01:46;;;;;;;;;;;28.20;59.40;;;;;;5065836;28;19955;-60
2022/08/31 14:07:40;;;;;;;;;;;26.90;58.40;;;;;;5079939;28;19931;-60
2022/08/31 14:10:18;;;;;;;;;;;26.10;59.90;;;;;;5075406;28;20299;-56
2022/08/31 14:12:52;;;;;;;;;;;25.60;61.10;;;;;;5075337;28;19924;-55
2022/08/31 14:15:23;;;;;;;;;;;25.30;62.00;;;;;;5073661;28;19947;-57
2022/08/31 14:17:57;;;;;;;;;;;25.10;62.20;;;;;;5072412;28;19924;-57
2022/08/31 14:20:49;;;;;;;;;;;25.20;63.10;;;;;;5070624;28;19925;-57
2022/08/31 14:23:40;;;;;;;;;;;25.80;62.00;;;;;;5071360;28;19959;-57
2022/08/31 14:26:14;;;;;;;;;;;26.20;60.00;;;;;;5072211;28;19924;-57
2022/08/31 14:28:45;;;;;;;;;;;26.20;60.40;;;;;;5082224;28;19935;-60
2022/08/31 14:31:24;;;;;;;;;;;26.30;61.10;;;;;;5081159;28;19925;-57
2022/08/31 14:33:56;;;;;;;;;;;26.70;60.20;;;;;;5078437;28;19928;-57
2022/08/31 14:36:24;;;;;;;;;;;27.00;59.90;;;;;;5072578;28;19935;-56
2022/08/31 14:38:53;;;;;;;;;;;27.50;60.60;;;;;;5080104;28;20521;-57
2022/08/31 14:41:25;;;;;;;;;;;27.70;60.90;;;;;;5068859;28;19928;-56
2022/08/31 14:43:53;;;;;;;;;;;27.90;59.80;;;;;;5078205;28;20155;-56
2022/08/31 14:46:26;;;;;;;;;;;27.80;59.80;;;;;;5075637;28;20371;-57
2022/08/31 14:48:55;;;;;;;;;;;27.40;59.20;;;;;;5082086;28;20363;-57
2022/08/31 14:51:23;;;;;;;;;;;27.10;59.80;;;;;;5067466;28;19931;-56
2022/08/31 14:53:55;;;;;;;;;;;26.50;60.00;;;;;;5074885;28;19932;-56
2022/08/31 14:56:27;;;;;;;;;;;26.00;60.60;;;;;;5074138;28;19929;-56
2022/08/31 14:58:56;;;;;;;;;;;25.50;61.60;;;;;;5072622;28;19928;-58
2022/08/31 15:01:26;;;;;;;;;;;25.20;62.60;;;;;;5068282;28;19924;-55
2022/08/31 15:03:54;;;;;;;;;;;25.00;62.20;;;;;;5080991;28;19931;-56
2022/08/31 15:06:21;;;;;;;;;;;24.90;62.50;;;;;;5069281;28;19925;-56
2022/08/31 15:08:50;;;;;;;;;;;24.80;63.40;;;;;;5074503;28;19924;-57
2022/08/31 15:11:17;;;;;;;;;;;24.70;64.40;;;;;;5083210;28;19932;-57
2022/08/31 15:13:45;;;;;;;;;;;24.50;64.80;;;;;;5087317;28;19932;-56